createdAt,value
2024-05-09T00:02:28.247Z,10.80
2024-05-09T00:05:00.032Z,10.78
2024-05-09T00:07:31.562Z,10.74
2024-05-09T00:10:05.453Z,10.70
2024-05-09T00:12:38.653Z,10.68
2024-05-09T00:15:11.397Z,10.64
2024-05-09T00:17:43.225Z,10.61
2024-05-09T00:20:20.499Z,10.59
2024-05-09T00:22:56.374Z,10.56
2024-05-09T00:25:27.949Z,10.53
2024-05-09T00:27:59.493Z,10.49
2024-05-09T00:30:34.807Z,10.46
2024-05-09T00:33:10.315Z,10.42
2024-05-09T00:35:43.611Z,10.39
2024-05-09T00:38:15.570Z,10.37
2024-05-09T00:40:47.344Z,10.35
2024-05-09T00:43:18.931Z,10.32
2024-05-09T00:45:50.882Z,10.29
2024-05-09T00:48:22.648Z,10.26
2024-05-09T00:50:56.374Z,10.23
2024-05-09T00:53:28.086Z,10.21
2024-05-09T00:56:00.466Z,10.18
2024-05-09T00:58:32.441Z,10.16
2024-05-09T01:01:04.277Z,10.14
2024-05-09T01:03:36.117Z,10.13
2024-05-09T01:06:08.078Z,10.10
2024-05-09T01:08:39.747Z,10.06
2024-05-09T01:11:11.586Z,10.02
2024-05-09T01:13:44.715Z,9.99
2024-05-09T01:16:16.649Z,9.95
2024-05-09T01:18:48.375Z,9.91
2024-05-09T01:21:20.268Z,9.88
2024-05-09T01:23:51.929Z,9.84
2024-05-09T01:26:23.489Z,9.80
2024-05-09T01:28:55.386Z,9.77
2024-05-09T01:31:27.044Z,9.75
2024-05-09T01:33:58.751Z,9.73
2024-05-09T01:36:30.670Z,9.70
2024-05-09T01:39:02.280Z,9.68
2024-05-09T01:41:34.060Z,9.66
2024-05-09T01:44:05.959Z,9.64
2024-05-09T01:46:37.575Z,9.62
2024-05-09T01:49:09.854Z,9.59
2024-05-09T01:51:41.576Z,9.54
2024-05-09T01:54:13.704Z,9.51
2024-05-09T01:56:45.447Z,9.48
2024-05-09T01:59:17.122Z,9.46
2024-05-09T02:01:56.652Z,9.43
2024-05-09T02:04:30.684Z,9.37
2024-05-09T02:07:02.319Z,9.32
2024-05-09T02:09:33.916Z,9.27
2024-05-09T02:12:06.227Z,9.22
2024-05-09T02:14:38.154Z,9.18
2024-05-09T02:17:09.681Z,9.14
2024-05-09T02:19:41.170Z,9.10
2024-05-09T02:22:13.079Z,9.06
2024-05-09T02:24:44.722Z,9.02
2024-05-09T02:27:16.247Z,8.98
2024-05-09T02:29:47.844Z,8.95
2024-05-09T02:32:19.635Z,8.93
2024-05-09T02:34:51.285Z,8.91
2024-05-09T02:37:22.980Z,8.88
2024-05-09T02:39:54.600Z,8.86
2024-05-09T02:42:26.248Z,8.83
2024-05-09T02:44:57.890Z,8.80
2024-05-09T02:47:29.669Z,8.75
2024-05-09T02:50:01.391Z,8.73
2024-05-09T02:52:33.009Z,8.70
2024-05-09T02:55:04.756Z,8.69
2024-05-09T02:57:37.408Z,8.66
2024-05-09T03:00:18.472Z,8.63
2024-05-09T03:02:54.225Z,8.59
2024-05-09T03:05:25.975Z,8.55
2024-05-09T03:07:58.371Z,8.51
2024-05-09T03:10:35.567Z,8.48
2024-05-09T03:13:12.142Z,8.44
2024-05-09T03:15:45.173Z,8.41
2024-05-09T03:18:22.652Z,8.36
2024-05-09T03:20:54.335Z,8.33
2024-05-09T03:23:26.300Z,8.30
2024-05-09T03:25:58.050Z,8.28
2024-05-09T03:28:29.679Z,8.28
2024-05-09T03:31:01.811Z,8.27
2024-05-09T03:33:33.771Z,8.25
2024-05-09T03:36:09.809Z,8.24
2024-05-09T03:38:42.769Z,8.21
2024-05-09T03:41:15.093Z,8.21
2024-05-09T03:43:47.717Z,8.19
2024-05-09T03:46:19.280Z,8.18
2024-05-09T03:48:51.078Z,8.19
2024-05-09T03:51:22.802Z,8.19
2024-05-09T03:53:54.335Z,8.19
2024-05-09T03:56:26.935Z,8.18
2024-05-09T03:58:58.581Z,8.16
2024-05-09T04:01:30.807Z,8.15
2024-05-09T04:04:02.662Z,8.14
2024-05-09T04:06:34.234Z,8.14
2024-05-09T04:09:05.898Z,8.14
2024-05-09T04:11:37.463Z,8.15
2024-05-09T04:14:09.467Z,8.15
2024-05-09T04:16:41.129Z,8.18
2024-05-09T04:19:12.911Z,8.19
2024-05-09T04:21:44.688Z,8.21
2024-05-09T04:24:16.330Z,8.25
2024-05-09T04:26:47.809Z,8.27
2024-05-09T04:29:19.477Z,8.31
2024-05-09T04:31:51.102Z,8.35
2024-05-09T04:34:23.239Z,8.40
2024-05-09T04:36:55.518Z,8.47
2024-05-09T04:39:27.109Z,8.54
2024-05-09T04:41:58.656Z,8.61
2024-05-09T04:44:30.554Z,8.69
2024-05-09T04:47:02.217Z,8.77
2024-05-09T04:49:33.835Z,8.84
2024-05-09T04:52:05.901Z,8.91
2024-05-09T04:54:37.853Z,8.98
2024-05-09T04:57:09.607Z,9.03
2024-05-09T04:59:41.198Z,9.09
2024-05-09T05:02:13.067Z,9.15
2024-05-09T05:04:45.034Z,9.20
2024-05-09T05:07:16.864Z,9.25
2024-05-09T05:09:48.525Z,9.32
2024-05-09T05:12:38.256Z,9.37
2024-05-09T05:15:10.382Z,9.43
2024-05-09T05:17:42.158Z,9.50
2024-05-09T05:20:17.918Z,9.60
2024-05-09T05:22:55.738Z,9.70
2024-05-09T05:25:27.428Z,9.79
2024-05-09T05:27:58.851Z,9.89
2024-05-09T05:30:34.622Z,9.97
2024-05-09T05:33:08.020Z,10.06
2024-05-09T05:35:39.812Z,10.13
2024-05-09T05:38:12.000Z,10.20
2024-05-09T05:40:43.953Z,10.26
2024-05-09T05:43:20.462Z,10.32
2024-05-09T05:45:52.006Z,10.39
2024-05-09T05:48:23.783Z,10.44
2024-05-09T05:50:55.702Z,10.48
2024-05-09T05:53:27.219Z,10.53
2024-05-09T05:55:58.986Z,10.57
2024-05-09T05:58:30.591Z,10.60
2024-05-09T06:01:02.205Z,10.64
2024-05-09T06:03:33.849Z,10.67
2024-05-09T06:06:06.337Z,10.70
2024-05-09T06:08:38.044Z,10.75
2024-05-09T06:11:09.634Z,10.78
2024-05-09T06:13:44.935Z,10.82
2024-05-09T06:16:16.493Z,10.86
2024-05-09T06:18:48.264Z,10.90
2024-05-09T06:21:20.616Z,10.94
2024-05-09T06:23:53.451Z,10.98
2024-05-09T06:26:25.083Z,11.03
2024-05-09T06:28:56.664Z,11.07
2024-05-09T06:31:28.231Z,11.11
2024-05-09T06:33:59.948Z,11.14
2024-05-09T06:36:31.815Z,11.18
2024-05-09T06:39:03.380Z,11.22
2024-05-09T06:41:35.255Z,11.26
2024-05-09T06:44:07.032Z,11.30
2024-05-09T06:46:40.302Z,11.35
2024-05-09T06:49:13.727Z,11.39
2024-05-09T06:51:45.527Z,11.44
2024-05-09T06:54:18.524Z,11.49
2024-05-09T06:56:50.224Z,11.52
2024-05-09T06:59:21.813Z,11.56
2024-05-09T07:01:54.620Z,11.61
2024-05-09T07:04:26.612Z,11.66
2024-05-09T07:06:58.912Z,11.70
2024-05-09T07:09:30.476Z,11.74
2024-05-09T07:12:02.272Z,11.79
2024-05-09T07:14:36.150Z,11.83
2024-05-09T07:17:09.502Z,11.87
2024-05-09T07:19:41.551Z,11.91
2024-05-09T07:22:13.764Z,11.95
2024-05-09T07:24:45.341Z,12.00
2024-05-09T07:27:17.035Z,12.04
2024-05-09T07:29:48.652Z,12.07
2024-05-09T07:32:20.447Z,12.12
2024-05-09T07:34:52.238Z,12.17
2024-05-09T07:37:24.248Z,12.21
2024-05-09T07:39:56.072Z,12.26
2024-05-09T07:42:27.716Z,12.29
2024-05-09T07:45:14.849Z,12.34
2024-05-09T07:49:13.695Z,12.39
2024-05-09T07:53:38.119Z,12.49
2024-05-09T07:56:12.239Z,12.53
2024-05-09T07:58:46.621Z,12.58
2024-05-09T08:01:18.445Z,12.62
2024-05-09T08:03:50.721Z,12.66
2024-05-09T08:06:24.284Z,12.71
2024-05-09T08:08:56.008Z,12.76
2024-05-09T08:11:28.416Z,12.81
2024-05-09T08:13:59.976Z,12.86
2024-05-09T08:16:31.708Z,12.91
2024-05-09T08:19:04.192Z,12.95
2024-05-09T08:21:35.906Z,13.00
2024-05-09T08:24:08.243Z,13.04
2024-05-09T08:26:39.770Z,13.10
2024-05-09T08:29:13.672Z,13.16
2024-05-09T08:31:45.409Z,13.21
2024-05-09T08:34:17.683Z,13.26
2024-05-09T08:36:49.448Z,13.30
2024-05-09T08:39:21.087Z,13.34
2024-05-09T08:41:53.057Z,13.38
2024-05-09T08:44:25.232Z,13.42
2024-05-09T08:46:57.443Z,13.47
2024-05-09T08:49:29.087Z,13.51
2024-05-09T08:52:01.083Z,13.55
2024-05-09T08:54:33.305Z,13.58
2024-05-09T08:57:05.440Z,13.62
2024-05-09T08:59:42.622Z,13.65
2024-05-09T09:02:16.333Z,13.68
2024-05-09T09:04:54.167Z,13.72
2024-05-09T09:07:27.424Z,13.78
2024-05-09T09:10:00.751Z,13.82
2024-05-09T09:12:32.655Z,13.86
2024-05-09T09:15:04.490Z,13.89
2024-05-09T09:17:36.954Z,13.93
2024-05-09T09:20:14.481Z,13.97
2024-05-09T09:22:50.964Z,14.03
2024-05-09T09:25:23.772Z,14.08
2024-05-09T09:27:56.046Z,14.14
2024-05-09T09:30:36.400Z,14.18
2024-05-09T09:33:11.999Z,14.24
2024-05-09T09:35:44.123Z,14.28
2024-05-09T09:38:23.974Z,14.31
2024-05-09T09:40:56.198Z,14.34
2024-05-09T09:43:29.079Z,14.36
2024-05-09T09:46:02.842Z,14.39
2024-05-09T09:48:34.898Z,14.44
2024-05-09T09:51:09.086Z,14.48
2024-05-09T09:53:42.360Z,14.51
2024-05-09T09:56:18.253Z,14.54
2024-05-09T09:58:51.074Z,14.57
2024-05-09T10:01:23.829Z,14.59
2024-05-09T10:03:55.754Z,14.60
2024-05-09T10:06:28.738Z,14.61
2024-05-09T10:09:00.778Z,14.63
2024-05-09T10:11:39.801Z,14.65
2024-05-09T10:14:23.207Z,14.67
2024-05-09T10:17:04.751Z,14.70
2024-05-09T10:19:35.315Z,14.72
2024-05-09T10:22:08.906Z,14.73
2024-05-09T10:24:51.231Z,14.77
2024-05-09T10:27:29.494Z,14.81
2024-05-09T10:30:03.839Z,14.86
2024-05-09T10:32:40.313Z,14.91
2024-05-09T10:35:14.947Z,14.97
2024-05-09T10:37:47.296Z,15.03
2024-05-09T10:40:26.135Z,15.09
2024-05-09T10:43:06.344Z,15.15
2024-05-09T10:45:39.133Z,15.22
2024-05-09T10:48:11.437Z,15.28
2024-05-09T10:50:45.877Z,15.36
2024-05-09T10:53:19.144Z,15.43
2024-05-09T10:55:59.731Z,15.48
2024-05-09T10:58:31.309Z,15.55
2024-05-09T11:01:06.638Z,15.60
2024-05-09T11:03:39.930Z,15.69
2024-05-09T11:06:13.224Z,15.75
2024-05-09T11:08:46.717Z,15.79
2024-05-09T11:11:18.835Z,15.85
2024-05-09T11:13:50.386Z,15.93
2024-05-09T11:16:22.680Z,16.01
2024-05-09T11:18:59.049Z,16.09
2024-05-09T11:21:31.018Z,16.15
2024-05-09T11:24:03.065Z,16.19
2024-05-09T11:26:35.230Z,16.23
2024-05-09T11:29:07.045Z,16.28
2024-05-09T11:31:50.466Z,16.32
2024-05-09T11:34:22.142Z,16.38
2024-05-09T11:36:54.092Z,16.44
2024-05-09T11:39:26.631Z,16.48
2024-05-09T11:41:58.417Z,16.55
2024-05-09T11:44:30.180Z,16.64
2024-05-09T11:47:01.851Z,16.72
2024-05-09T11:49:33.672Z,16.80
2024-05-09T11:52:06.184Z,16.87
2024-05-09T11:54:37.770Z,16.94
2024-05-09T11:57:10.446Z,17.01
2024-05-09T11:59:42.446Z,17.09
2024-05-09T12:02:14.160Z,17.20
2024-05-09T12:04:46.911Z,17.29
2024-05-09T12:07:21.582Z,17.37
2024-05-09T12:09:53.360Z,17.45
2024-05-09T12:12:24.873Z,17.56
2024-05-09T12:14:57.063Z,17.66
2024-05-09T12:17:29.235Z,17.73
2024-05-09T12:20:00.928Z,17.79
2024-05-09T12:22:32.560Z,17.88
2024-05-09T12:25:04.941Z,17.98
2024-05-09T12:27:40.057Z,18.06
2024-05-09T12:30:24.668Z,18.17
2024-05-09T12:33:01.113Z,18.26
2024-05-09T12:35:33.370Z,18.34
2024-05-09T12:38:05.417Z,18.44
2024-05-09T12:40:38.927Z,18.52
2024-05-09T12:43:12.041Z,18.61
2024-05-09T12:45:44.287Z,18.71
2024-05-09T12:48:16.442Z,18.80
2024-05-09T12:50:48.498Z,18.88
2024-05-09T12:53:20.292Z,18.95
2024-05-09T12:55:56.961Z,19.02
2024-05-09T12:58:32.362Z,19.12
2024-05-09T13:01:03.971Z,19.21
2024-05-09T13:03:36.294Z,19.29
2024-05-09T13:06:08.366Z,19.38
2024-05-09T13:08:40.004Z,19.51
2024-05-09T13:11:11.574Z,19.59
2024-05-09T13:13:43.099Z,19.68
2024-05-09T13:16:14.824Z,19.79
2024-05-09T13:18:47.094Z,19.89
2024-05-09T13:21:18.706Z,19.99
2024-05-09T13:23:50.268Z,20.08
2024-05-09T13:26:22.012Z,20.16
2024-05-09T13:28:53.594Z,20.24
2024-05-09T13:31:25.285Z,20.33
2024-05-09T13:33:57.126Z,20.39
2024-05-09T13:36:28.713Z,20.47
2024-05-09T13:39:00.863Z,20.55
2024-05-09T13:41:32.306Z,20.63
2024-05-09T13:44:04.655Z,20.70
2024-05-09T13:46:37.037Z,20.77
2024-05-09T13:49:11.753Z,20.86
2024-05-09T13:51:44.256Z,21.00
2024-05-09T13:54:18.602Z,21.11
2024-05-09T13:56:52.294Z,21.21
2024-05-09T13:59:24.113Z,21.30
2024-05-09T14:01:55.909Z,21.41
2024-05-09T14:04:27.787Z,21.51
2024-05-09T14:06:59.689Z,21.58
2024-05-09T14:09:31.406Z,21.70
2024-05-09T14:12:03.038Z,21.85
2024-05-09T14:14:34.589Z,22.01
2024-05-09T14:17:06.436Z,22.21
2024-05-09T14:19:38.056Z,22.36
2024-05-09T14:22:09.960Z,22.51
2024-05-09T14:24:41.741Z,22.66
2024-05-09T14:27:13.297Z,22.86
2024-05-09T14:29:44.963Z,23.06
2024-05-09T14:32:17.258Z,23.27
2024-05-09T14:34:48.883Z,23.53
2024-05-09T14:37:21.182Z,23.80
2024-05-09T14:39:52.755Z,23.96
2024-05-09T14:42:24.271Z,24.20
2024-05-09T14:44:55.903Z,24.42
2024-05-09T14:47:27.661Z,24.56
2024-05-09T14:50:00.145Z,24.70
2024-05-09T14:52:31.719Z,24.78
2024-05-09T14:55:03.413Z,24.89
2024-05-09T14:57:35.071Z,25.08
2024-05-09T15:00:17.311Z,25.37
2024-05-09T15:02:57.163Z,25.69
2024-05-09T15:05:29.935Z,25.96
2024-05-09T15:08:01.805Z,26.19
2024-05-09T15:10:36.251Z,26.43
2024-05-09T15:13:10.530Z,26.65
2024-05-09T15:15:44.321Z,26.87
2024-05-09T15:18:16.315Z,27.00
2024-05-09T15:20:48.716Z,26.98
2024-05-09T15:23:20.794Z,27.01
2024-05-09T15:25:52.632Z,27.01
2024-05-09T15:28:24.792Z,27.02
2024-05-09T15:30:56.519Z,26.88
2024-05-09T15:33:28.795Z,26.81
2024-05-09T15:36:00.547Z,26.71
2024-05-09T15:38:32.763Z,26.67
2024-05-09T15:41:04.511Z,26.62
2024-05-09T15:43:36.132Z,26.43
2024-05-09T15:46:08.522Z,26.32
2024-05-09T15:48:44.530Z,26.20
2024-05-09T15:51:16.723Z,26.09
2024-05-09T15:53:48.264Z,26.06
2024-05-09T15:56:20.090Z,25.98
2024-05-09T15:58:51.599Z,25.85
2024-05-09T16:01:23.377Z,25.76
2024-05-09T16:03:55.235Z,25.74
2024-05-09T16:06:26.997Z,25.64
2024-05-09T16:08:58.615Z,25.46
2024-05-09T16:11:30.187Z,25.34
2024-05-09T16:14:01.832Z,25.29
2024-05-09T16:16:33.882Z,25.27
2024-05-09T16:19:05.882Z,25.26
2024-05-09T16:21:37.628Z,25.21
2024-05-09T16:24:10.443Z,25.03
2024-05-09T16:26:42.083Z,24.92
2024-05-09T16:29:13.712Z,24.68
2024-05-09T16:31:45.414Z,24.49
2024-05-09T16:34:17.210Z,24.41
2024-05-09T16:36:51.337Z,24.41
2024-05-09T16:39:23.081Z,24.41
2024-05-09T16:41:55.358Z,24.34
2024-05-09T16:44:26.949Z,24.32
2024-05-09T16:46:58.708Z,24.20
2024-05-09T16:49:30.213Z,24.01
2024-05-09T16:52:01.862Z,23.89
2024-05-09T16:54:33.670Z,23.85
2024-05-09T16:57:05.898Z,23.82
2024-05-09T16:59:37.502Z,23.80
2024-05-09T17:02:09.756Z,23.63
2024-05-09T17:04:42.784Z,23.38
2024-05-09T17:07:14.846Z,23.14
2024-05-09T17:09:46.839Z,22.88
2024-05-09T17:12:18.726Z,22.58
2024-05-09T17:14:51.415Z,22.27
2024-05-09T17:17:23.389Z,22.06
2024-05-09T17:19:54.994Z,21.94
2024-05-09T17:22:26.609Z,21.86
2024-05-09T17:24:58.278Z,21.78
2024-05-09T17:27:30.140Z,21.65
2024-05-09T17:30:01.819Z,21.47
2024-05-09T17:32:33.643Z,21.22
2024-05-09T17:35:05.879Z,21.06
2024-05-09T17:37:37.665Z,20.91
2024-05-09T17:40:16.935Z,20.76
2024-05-09T17:42:50.084Z,20.61
2024-05-09T17:45:21.748Z,20.47
2024-05-09T17:47:54.032Z,20.30
2024-05-09T17:50:31.696Z,20.22
2024-05-09T17:53:06.369Z,20.12
2024-05-09T17:55:39.145Z,19.95
2024-05-09T17:58:12.824Z,19.83
2024-05-09T18:00:44.760Z,19.77
2024-05-09T18:03:16.844Z,19.72
2024-05-09T18:05:48.613Z,19.66
2024-05-09T18:08:20.493Z,19.59
2024-05-09T18:10:54.812Z,19.55
2024-05-09T18:13:27.184Z,19.51
2024-05-09T18:15:59.351Z,19.45
2024-05-09T18:18:31.340Z,19.38
2024-05-09T18:21:02.954Z,19.32
2024-05-09T18:23:35.817Z,19.21
2024-05-09T18:26:09.457Z,19.14
2024-05-09T18:28:41.696Z,19.08
2024-05-09T18:31:13.364Z,19.01
2024-05-09T18:33:45.282Z,18.96
2024-05-09T18:36:17.073Z,18.90
2024-05-09T18:38:49.300Z,18.83
2024-05-09T18:41:22.025Z,18.73
2024-05-09T18:43:55.145Z,18.64
2024-05-09T18:46:27.574Z,18.57
2024-05-09T18:48:59.917Z,18.52
2024-05-09T18:51:31.985Z,18.45
2024-05-09T18:54:04.005Z,18.40
2024-05-09T18:56:36.027Z,18.35
2024-05-09T18:59:08.273Z,18.31
2024-05-09T19:01:42.252Z,18.26
2024-05-09T19:04:18.360Z,18.23
2024-05-09T19:06:50.775Z,18.16
2024-05-09T19:09:22.564Z,18.09
2024-05-09T19:11:54.536Z,18.02
2024-05-09T19:14:26.199Z,17.95
2024-05-09T19:16:58.298Z,17.87
2024-05-09T19:19:30.089Z,17.78
2024-05-09T19:22:01.896Z,17.69
2024-05-09T19:24:33.539Z,17.61
2024-05-09T19:27:05.824Z,17.52
2024-05-09T19:29:38.160Z,17.42
2024-05-09T19:32:10.554Z,17.32
2024-05-09T19:34:42.250Z,17.22
2024-05-09T19:37:14.152Z,17.12
2024-05-09T19:39:45.937Z,17.05
2024-05-09T19:42:17.778Z,16.95
2024-05-09T19:44:49.475Z,16.86
2024-05-09T19:47:21.185Z,16.77
2024-05-09T19:49:52.903Z,16.69
2024-05-09T19:52:24.566Z,16.62
2024-05-09T19:54:56.429Z,16.55
2024-05-09T19:57:27.990Z,16.46
2024-05-09T19:59:59.539Z,16.39
2024-05-09T20:02:31.405Z,16.34
2024-05-09T20:05:04.056Z,16.27
2024-05-09T20:07:37.553Z,16.19
2024-05-09T20:10:16.622Z,16.11
2024-05-09T20:12:55.019Z,16.03
2024-05-09T20:15:26.724Z,15.96
2024-05-09T20:17:58.490Z,15.90
2024-05-09T20:20:37.557Z,15.84
2024-05-09T20:23:13.685Z,15.77
2024-05-09T20:25:45.552Z,15.71
2024-05-09T20:28:17.313Z,15.64
2024-05-09T20:30:49.394Z,15.57
2024-05-09T20:33:20.994Z,15.48
2024-05-09T20:35:55.393Z,15.43
2024-05-09T20:38:27.245Z,15.38
2024-05-09T20:40:59.112Z,15.33
2024-05-09T20:43:30.817Z,15.29
2024-05-09T20:46:02.463Z,15.24
2024-05-09T20:48:34.594Z,15.20
2024-05-09T20:51:06.928Z,15.17
2024-05-09T20:53:38.480Z,15.14
2024-05-09T20:56:10.879Z,15.12
2024-05-09T20:58:42.853Z,15.10
2024-05-09T21:01:14.658Z,15.07
2024-05-09T21:03:47.459Z,15.04
2024-05-09T21:06:19.272Z,15.01
2024-05-09T21:08:51.145Z,14.97
2024-05-09T21:11:25.207Z,14.93
2024-05-09T21:13:56.789Z,14.89
2024-05-09T21:16:28.541Z,14.86
2024-05-09T21:19:00.470Z,14.83
2024-05-09T21:21:39.444Z,14.79
2024-05-09T21:24:11.143Z,14.75
2024-05-09T21:26:42.860Z,14.71
2024-05-09T21:29:14.432Z,14.68
2024-05-09T21:31:46.116Z,14.65
2024-05-09T21:34:17.742Z,14.61
2024-05-09T21:36:49.658Z,14.58
2024-05-09T21:39:23.676Z,14.54
2024-05-09T21:41:55.360Z,14.50
2024-05-09T21:44:26.971Z,14.47
2024-05-09T21:46:58.487Z,14.44
2024-05-09T21:49:30.345Z,14.42
2024-05-09T21:52:02.353Z,14.41
2024-05-09T21:54:34.276Z,14.38
2024-05-09T21:57:09.015Z,14.36
2024-05-09T21:59:41.939Z,14.35
2024-05-09T22:02:14.347Z,14.34
2024-05-09T22:04:46.186Z,14.32
2024-05-09T22:07:17.902Z,14.30
2024-05-09T22:09:49.590Z,14.27
2024-05-09T22:12:21.684Z,14.24
2024-05-09T22:14:53.463Z,14.20
2024-05-09T22:17:25.227Z,14.18
2024-05-09T22:19:57.056Z,14.16
2024-05-09T22:22:29.346Z,14.14
2024-05-09T22:25:01.733Z,14.12
2024-05-09T22:27:33.471Z,14.10
2024-05-09T22:30:09.103Z,14.07
2024-05-09T22:32:43.392Z,14.03
2024-05-09T22:35:14.990Z,13.99
2024-05-09T22:37:46.498Z,13.96
2024-05-09T22:40:28.244Z,13.91
2024-05-09T22:43:09.131Z,13.87
2024-05-09T22:45:40.928Z,13.84
2024-05-09T22:48:13.149Z,13.81
2024-05-09T22:50:44.907Z,13.78
2024-05-09T22:53:16.808Z,13.77
2024-05-09T22:55:48.630Z,13.75
2024-05-09T22:58:21.214Z,13.73
2024-05-09T23:00:53.054Z,13.70
2024-05-09T23:03:26.183Z,13.68
2024-05-09T23:05:58.950Z,13.66
2024-05-09T23:08:31.521Z,13.64
2024-05-09T23:11:04.320Z,13.62
2024-05-09T23:13:37.079Z,13.61
2024-05-09T23:16:09.381Z,13.61
2024-05-09T23:18:41.353Z,13.61
2024-05-09T23:21:12.973Z,13.59
2024-05-09T23:23:44.616Z,13.57
2024-05-09T23:26:16.091Z,13.55
2024-05-09T23:28:47.669Z,13.53
2024-05-09T23:31:19.346Z,13.52
2024-05-09T23:33:51.293Z,13.51
2024-05-09T23:36:23.042Z,13.50
2024-05-09T23:38:54.879Z,13.49
2024-05-09T23:41:26.373Z,13.48
2024-05-09T23:43:57.971Z,13.48
2024-05-09T23:46:29.664Z,13.47
2024-05-09T23:49:01.316Z,13.47
2024-05-09T23:51:33.136Z,13.46
2024-05-09T23:54:04.900Z,13.44
2024-05-09T23:56:36.570Z,13.43
2024-05-09T23:59:08.442Z,13.42
